sensor_id;sensor_type;location;lat;lon;timestamp;P1;durP1;ratioP1;P2;durP2;ratioP2
40691;SDS011;26377;53.344;14.886;2022-08-19T00:00:07;8.70;;;7.75;;
40691;SDS011;26377;53.344;14.886;2022-08-19T00:02:41;11.10;;;7.72;;
40691;SDS011;26377;53.344;14.886;2022-08-19T00:05:12;8.58;;;7.67;;
40691;SDS011;26377;53.344;14.886;2022-08-19T00:07:42;10.37;;;7.33;;
40691;SDS011;26377;53.344;14.886;2022-08-19T00:10:13;8.88;;;7.97;;
40691;SDS011;26377;53.344;14.886;2022-08-19T00:12:44;9.18;;;8.13;;
40691;SDS011;26377;53.344;14.886;2022-08-19T00:15:12;9.80;;;8.65;;
40691;SDS011;26377;53.344;14.886;2022-08-19T00:17:45;9.55;;;8.05;;
40691;SDS011;26377;53.344;14.886;2022-08-19T00:20:15;9.35;;;8.35;;
40691;SDS011;26377;53.344;14.886;2022-08-19T00:22:45;9.10;;;8.20;;
40691;SDS011;26377;53.344;14.886;2022-08-19T00:25:15;8.93;;;8.03;;
40691;SDS011;26377;53.344;14.886;2022-08-19T00:27:44;9.00;;;8.20;;
40691;SDS011;26377;53.344;14.886;2022-08-19T00:30:13;10.35;;;8.20;;
40691;SDS011;26377;53.344;14.886;2022-08-19T00:32:42;8.85;;;7.95;;
40691;SDS011;26377;53.344;14.886;2022-08-19T00:35:13;9.03;;;8.10;;
40691;SDS011;26377;53.344;14.886;2022-08-19T00:37:41;9.88;;;8.28;;
40691;SDS011;26377;53.344;14.886;2022-08-19T00:40:10;11.00;;;8.55;;
40691;SDS011;26377;53.344;14.886;2022-08-19T00:42:39;11.78;;;8.18;;
40691;SDS011;26377;53.344;14.886;2022-08-19T00:45:14;10.23;;;7.67;;
40691;SDS011;26377;53.344;14.886;2022-08-19T00:47:50;9.30;;;8.30;;
40691;SDS011;26377;53.344;14.886;2022-08-19T00:50:23;9.20;;;8.08;;
40691;SDS011;26377;53.344;14.886;2022-08-19T00:52:51;9.60;;;8.03;;
40691;SDS011;26377;53.344;14.886;2022-08-19T00:55:22;9.98;;;8.98;;
40691;SDS011;26377;53.344;14.886;2022-08-19T00:58:00;12.00;;;9.18;;
40691;SDS011;26377;53.344;14.886;2022-08-19T01:00:27;12.90;;;9.55;;
40691;SDS011;26377;53.344;14.886;2022-08-19T01:02:55;10.60;;;9.50;;
40691;SDS011;26377;53.344;14.886;2022-08-19T01:05:25;15.78;;;9.48;;
40691;SDS011;26377;53.344;14.886;2022-08-19T01:08:00;14.23;;;10.20;;
40691;SDS011;26377;53.344;14.886;2022-08-19T01:10:35;10.00;;;9.00;;
40691;SDS011;26377;53.344;14.886;2022-08-19T01:13:16;11.28;;;9.90;;
40691;SDS011;26377;53.344;14.886;2022-08-19T01:15:52;10.85;;;9.63;;
40691;SDS011;26377;53.344;14.886;2022-08-19T01:18:28;12.75;;;10.60;;
40691;SDS011;26377;53.344;14.886;2022-08-19T01:20:58;10.65;;;9.33;;
40691;SDS011;26377;53.344;14.886;2022-08-19T01:23:31;11.50;;;10.08;;
40691;SDS011;26377;53.344;14.886;2022-08-19T01:28:43;11.53;;;10.43;;
40691;SDS011;26377;53.344;14.886;2022-08-19T01:31:19;12.68;;;10.00;;
40691;SDS011;26377;53.344;14.886;2022-08-19T01:33:51;11.22;;;9.55;;
40691;SDS011;26377;53.344;14.886;2022-08-19T01:36:31;11.48;;;9.83;;
40691;SDS011;26377;53.344;14.886;2022-08-19T01:39:09;13.28;;;9.58;;
40691;SDS011;26377;53.344;14.886;2022-08-19T01:41:41;14.07;;;9.00;;
40691;SDS011;26377;53.344;14.886;2022-08-19T01:44:09;12.23;;;9.73;;
40691;SDS011;26377;53.344;14.886;2022-08-19T01:46:38;11.57;;;10.20;;
40691;SDS011;26377;53.344;14.886;2022-08-19T01:49:06;9.88;;;8.90;;
40691;SDS011;26377;53.344;14.886;2022-08-19T01:51:37;13.70;;;9.80;;
40691;SDS011;26377;53.344;14.886;2022-08-19T01:54:09;15.65;;;10.15;;
40691;SDS011;26377;53.344;14.886;2022-08-19T01:56:41;13.90;;;10.50;;
40691;SDS011;26377;53.344;14.886;2022-08-19T01:59:14;14.35;;;9.58;;
40691;SDS011;26377;53.344;14.886;2022-08-19T02:01:44;10.78;;;9.63;;
40691;SDS011;26377;53.344;14.886;2022-08-19T02:04:13;13.22;;;9.23;;
40691;SDS011;26377;53.344;14.886;2022-08-19T02:06:41;10.48;;;9.38;;
40691;SDS011;26377;53.344;14.886;2022-08-19T02:09:10;12.75;;;9.55;;
40691;SDS011;26377;53.344;14.886;2022-08-19T02:11:41;11.83;;;8.65;;
40691;SDS011;26377;53.344;14.886;2022-08-19T02:14:08;15.75;;;8.65;;
40691;SDS011;26377;53.344;14.886;2022-08-19T02:16:36;9.75;;;8.68;;
40691;SDS011;26377;53.344;14.886;2022-08-19T02:19:04;10.13;;;8.25;;
40691;SDS011;26377;53.344;14.886;2022-08-19T02:21:32;10.68;;;9.58;;
40691;SDS011;26377;53.344;14.886;2022-08-19T02:24:00;20.97;;;9.55;;
40691;SDS011;26377;53.344;14.886;2022-08-19T02:26:28;13.43;;;9.78;;
40691;SDS011;26377;53.344;14.886;2022-08-19T02:28:55;10.82;;;9.05;;
40691;SDS011;26377;53.344;14.886;2022-08-19T02:31:24;14.50;;;10.93;;
40691;SDS011;26377;53.344;14.886;2022-08-19T02:33:54;13.08;;;10.08;;
40691;SDS011;26377;53.344;14.886;2022-08-19T02:36:24;14.87;;;10.55;;
40691;SDS011;26377;53.344;14.886;2022-08-19T02:38:53;12.60;;;10.03;;
40691;SDS011;26377;53.344;14.886;2022-08-19T02:41:23;16.10;;;10.23;;
40691;SDS011;26377;53.344;14.886;2022-08-19T02:43:57;13.00;;;9.48;;
40691;SDS011;26377;53.344;14.886;2022-08-19T02:46:30;13.25;;;9.88;;
40691;SDS011;26377;53.344;14.886;2022-08-19T02:49:03;12.10;;;10.43;;
40691;SDS011;26377;53.344;14.886;2022-08-19T02:51:38;16.48;;;11.38;;
40691;SDS011;26377;53.344;14.886;2022-08-19T02:54:11;13.38;;;11.22;;
40691;SDS011;26377;53.344;14.886;2022-08-19T02:56:41;11.05;;;9.95;;
40691;SDS011;26377;53.344;14.886;2022-08-19T02:59:14;14.03;;;10.40;;
40691;SDS011;26377;53.344;14.886;2022-08-19T03:01:43;11.73;;;9.50;;
40691;SDS011;26377;53.344;14.886;2022-08-19T03:04:11;10.88;;;9.48;;
40691;SDS011;26377;53.344;14.886;2022-08-19T03:06:43;11.25;;;9.95;;
40691;SDS011;26377;53.344;14.886;2022-08-19T03:09:13;11.50;;;9.58;;
40691;SDS011;26377;53.344;14.886;2022-08-19T03:11:42;12.00;;;10.38;;
40691;SDS011;26377;53.344;14.886;2022-08-19T03:14:14;12.82;;;10.50;;
40691;SDS011;26377;53.344;14.886;2022-08-19T03:16:47;11.73;;;10.53;;
40691;SDS011;26377;53.344;14.886;2022-08-19T03:19:16;11.28;;;10.13;;
40691;SDS011;26377;53.344;14.886;2022-08-19T03:22:04;16.65;;;10.45;;
40691;SDS011;26377;53.344;14.886;2022-08-19T03:24:32;12.23;;;10.70;;
40691;SDS011;26377;53.344;14.886;2022-08-19T03:26:59;12.85;;;10.98;;
40691;SDS011;26377;53.344;14.886;2022-08-19T03:29:30;18.85;;;11.73;;
40691;SDS011;26377;53.344;14.886;2022-08-19T03:32:04;12.53;;;11.33;;
40691;SDS011;26377;53.344;14.886;2022-08-19T03:34:35;14.03;;;10.75;;
40691;SDS011;26377;53.344;14.886;2022-08-19T03:37:09;11.90;;;10.35;;
40691;SDS011;26377;53.344;14.886;2022-08-19T03:39:41;13.55;;;11.25;;
40691;SDS011;26377;53.344;14.886;2022-08-19T03:42:10;14.47;;;11.48;;
40691;SDS011;26377;53.344;14.886;2022-08-19T03:44:38;17.12;;;11.95;;
40691;SDS011;26377;53.344;14.886;2022-08-19T03:47:05;12.88;;;11.60;;
40691;SDS011;26377;53.344;14.886;2022-08-19T03:49:33;16.93;;;12.47;;
40691;SDS011;26377;53.344;14.886;2022-08-19T03:52:01;12.50;;;11.20;;
40691;SDS011;26377;53.344;14.886;2022-08-19T03:54:31;16.42;;;11.25;;
40691;SDS011;26377;53.344;14.886;2022-08-19T03:57:02;18.65;;;12.53;;
40691;SDS011;26377;53.344;14.886;2022-08-19T03:59:37;20.05;;;12.70;;
40691;SDS011;26377;53.344;14.886;2022-08-19T04:02:11;13.90;;;11.83;;
40691;SDS011;26377;53.344;14.886;2022-08-19T04:04:41;13.28;;;11.97;;
40691;SDS011;26377;53.344;14.886;2022-08-19T04:07:12;16.57;;;12.25;;
40691;SDS011;26377;53.344;14.886;2022-08-19T04:09:45;12.98;;;11.68;;
40691;SDS011;26377;53.344;14.886;2022-08-19T04:12:14;15.58;;;12.68;;
40691;SDS011;26377;53.344;14.886;2022-08-19T04:14:46;16.00;;;12.25;;
40691;SDS011;26377;53.344;14.886;2022-08-19T04:17:14;15.60;;;12.07;;
40691;SDS011;26377;53.344;14.886;2022-08-19T04:19:46;17.77;;;12.88;;
40691;SDS011;26377;53.344;14.886;2022-08-19T04:22:16;13.32;;;12.03;;
40691;SDS011;26377;53.344;14.886;2022-08-19T04:24:44;14.20;;;12.28;;
40691;SDS011;26377;53.344;14.886;2022-08-19T04:27:12;16.25;;;12.68;;
40691;SDS011;26377;53.344;14.886;2022-08-19T04:29:40;14.10;;;12.55;;
40691;SDS011;26377;53.344;14.886;2022-08-19T04:32:07;13.95;;;12.60;;
40691;SDS011;26377;53.344;14.886;2022-08-19T04:34:36;15.65;;;12.98;;
40691;SDS011;26377;53.344;14.886;2022-08-19T04:37:04;14.58;;;11.53;;
40691;SDS011;26377;53.344;14.886;2022-08-19T04:39:40;15.65;;;12.68;;
40691;SDS011;26377;53.344;14.886;2022-08-19T04:42:26;15.23;;;13.70;;
40691;SDS011;26377;53.344;14.886;2022-08-19T04:45:06;17.12;;;13.22;;
40691;SDS011;26377;53.344;14.886;2022-08-19T04:47:42;14.90;;;12.45;;
40691;SDS011;26377;53.344;14.886;2022-08-19T04:50:10;17.67;;;13.78;;
40691;SDS011;26377;53.344;14.886;2022-08-19T04:52:38;12.88;;;11.57;;
40691;SDS011;26377;53.344;14.886;2022-08-19T04:55:12;16.85;;;13.38;;
40691;SDS011;26377;53.344;14.886;2022-08-19T04:57:39;17.15;;;13.08;;
40691;SDS011;26377;53.344;14.886;2022-08-19T05:00:10;16.30;;;13.75;;
40691;SDS011;26377;53.344;14.886;2022-08-19T05:02:38;15.45;;;13.88;;
40691;SDS011;26377;53.344;14.886;2022-08-19T05:05:06;20.12;;;13.90;;
40691;SDS011;26377;53.344;14.886;2022-08-19T05:07:34;16.10;;;13.60;;
40691;SDS011;26377;53.344;14.886;2022-08-19T05:10:05;15.05;;;13.43;;
40691;SDS011;26377;53.344;14.886;2022-08-19T05:12:33;16.97;;;14.60;;
40691;SDS011;26377;53.344;14.886;2022-08-19T05:15:02;18.07;;;15.45;;
40691;SDS011;26377;53.344;14.886;2022-08-19T05:17:36;17.35;;;14.47;;
40691;SDS011;26377;53.344;14.886;2022-08-19T05:20:10;20.02;;;14.20;;
40691;SDS011;26377;53.344;14.886;2022-08-19T05:22:55;14.43;;;13.13;;
40691;SDS011;26377;53.344;14.886;2022-08-19T05:25:23;14.10;;;12.70;;
40691;SDS011;26377;53.344;14.886;2022-08-19T05:27:51;14.80;;;13.25;;
40691;SDS011;26377;53.344;14.886;2022-08-19T05:30:20;19.32;;;14.95;;
40691;SDS011;26377;53.344;14.886;2022-08-19T05:32:48;17.07;;;15.35;;
40691;SDS011;26377;53.344;14.886;2022-08-19T05:37:48;15.98;;;14.30;;
40691;SDS011;26377;53.344;14.886;2022-08-19T05:40:16;16.93;;;14.63;;
40691;SDS011;26377;53.344;14.886;2022-08-19T05:42:45;17.12;;;14.98;;
40691;SDS011;26377;53.344;14.886;2022-08-19T05:45:14;16.57;;;14.87;;
40691;SDS011;26377;53.344;14.886;2022-08-19T05:47:41;20.75;;;14.30;;
40691;SDS011;26377;53.344;14.886;2022-08-19T05:50:08;15.83;;;14.23;;
40691;SDS011;26377;53.344;14.886;2022-08-19T05:52:37;17.57;;;15.65;;
40691;SDS011;26377;53.344;14.886;2022-08-19T05:55:05;16.17;;;14.23;;
40691;SDS011;26377;53.344;14.886;2022-08-19T05:57:34;21.37;;;15.38;;
40691;SDS011;26377;53.344;14.886;2022-08-19T06:00:03;17.52;;;14.58;;
40691;SDS011;26377;53.344;14.886;2022-08-19T06:02:37;15.50;;;13.98;;
40691;SDS011;26377;53.344;14.886;2022-08-19T06:05:04;19.07;;;14.85;;
40691;SDS011;26377;53.344;14.886;2022-08-19T06:07:38;19.87;;;14.70;;
40691;SDS011;26377;53.344;14.886;2022-08-19T06:10:06;16.67;;;14.80;;
40691;SDS011;26377;53.344;14.886;2022-08-19T06:12:37;16.15;;;14.50;;
40691;SDS011;26377;53.344;14.886;2022-08-19T06:15:09;20.52;;;14.38;;
40691;SDS011;26377;53.344;14.886;2022-08-19T06:17:40;15.40;;;13.43;;
40691;SDS011;26377;53.344;14.886;2022-08-19T06:20:13;19.82;;;14.68;;
40691;SDS011;26377;53.344;14.886;2022-08-19T06:22:46;16.25;;;14.55;;
40691;SDS011;26377;53.344;14.886;2022-08-19T06:25:17;18.17;;;15.63;;
40691;SDS011;26377;53.344;14.886;2022-08-19T06:27:48;21.30;;;15.83;;
40691;SDS011;26377;53.344;14.886;2022-08-19T06:30:15;20.15;;;14.28;;
40691;SDS011;26377;53.344;14.886;2022-08-19T06:32:43;16.20;;;14.38;;
40691;SDS011;26377;53.344;14.886;2022-08-19T06:35:10;17.12;;;15.28;;
40691;SDS011;26377;53.344;14.886;2022-08-19T06:37:39;22.32;;;14.73;;
40691;SDS011;26377;53.344;14.886;2022-08-19T06:40:09;22.90;;;16.00;;
40691;SDS011;26377;53.344;14.886;2022-08-19T06:42:39;20.05;;;15.83;;
40691;SDS011;26377;53.344;14.886;2022-08-19T06:45:08;18.12;;;16.32;;
40691;SDS011;26377;53.344;14.886;2022-08-19T06:47:36;17.02;;;15.23;;
40691;SDS011;26377;53.344;14.886;2022-08-19T06:50:04;18.40;;;16.52;;
40691;SDS011;26377;53.344;14.886;2022-08-19T06:52:34;17.70;;;15.98;;
40691;SDS011;26377;53.344;14.886;2022-08-19T06:55:02;19.77;;;17.17;;
40691;SDS011;26377;53.344;14.886;2022-08-19T06:57:35;18.15;;;16.25;;
40691;SDS011;26377;53.344;14.886;2022-08-19T07:00:03;20.48;;;17.62;;
40691;SDS011;26377;53.344;14.886;2022-08-19T07:02:36;23.92;;;19.57;;
40691;SDS011;26377;53.344;14.886;2022-08-19T07:05:04;19.35;;;17.45;;
40691;SDS011;26377;53.344;14.886;2022-08-19T07:07:33;22.37;;;19.98;;
40691;SDS011;26377;53.344;14.886;2022-08-19T07:10:02;23.67;;;21.17;;
40691;SDS011;26377;53.344;14.886;2022-08-19T07:15:03;19.55;;;17.60;;
40691;SDS011;26377;53.344;14.886;2022-08-19T07:17:32;24.20;;;20.02;;
40691;SDS011;26377;53.344;14.886;2022-08-19T07:20:01;23.35;;;19.25;;
40691;SDS011;26377;53.344;14.886;2022-08-19T07:22:31;19.65;;;16.82;;
40691;SDS011;26377;53.344;14.886;2022-08-19T07:25:03;20.12;;;17.95;;
40691;SDS011;26377;53.344;14.886;2022-08-19T07:27:36;19.80;;;17.50;;
40691;SDS011;26377;53.344;14.886;2022-08-19T07:30:08;17.10;;;14.93;;
40691;SDS011;26377;53.344;14.886;2022-08-19T07:32:38;17.85;;;15.95;;
40691;SDS011;26377;53.344;14.886;2022-08-19T07:35:07;19.60;;;16.17;;
40691;SDS011;26377;53.344;14.886;2022-08-19T07:37:36;21.50;;;16.50;;
40691;SDS011;26377;53.344;14.886;2022-08-19T07:40:06;19.48;;;17.50;;
40691;SDS011;26377;53.344;14.886;2022-08-19T07:42:36;21.20;;;16.37;;
40691;SDS011;26377;53.344;14.886;2022-08-19T07:45:05;21.50;;;15.72;;
40691;SDS011;26377;53.344;14.886;2022-08-19T07:47:36;20.72;;;16.48;;
40691;SDS011;26377;53.344;14.886;2022-08-19T07:50:04;18.00;;;15.15;;
40691;SDS011;26377;53.344;14.886;2022-08-19T07:52:35;17.57;;;15.72;;
40691;SDS011;26377;53.344;14.886;2022-08-19T07:55:06;19.55;;;15.40;;
40691;SDS011;26377;53.344;14.886;2022-08-19T07:57:36;19.12;;;14.47;;
40691;SDS011;26377;53.344;14.886;2022-08-19T08:00:05;18.48;;;16.62;;
40691;SDS011;26377;53.344;14.886;2022-08-19T08:02:38;19.40;;;16.05;;
40691;SDS011;26377;53.344;14.886;2022-08-19T08:05:05;17.07;;;14.25;;
40691;SDS011;26377;53.344;14.886;2022-08-19T08:07:51;18.62;;;15.98;;
40691;SDS011;26377;53.344;14.886;2022-08-19T08:10:39;19.80;;;16.30;;
40691;SDS011;26377;53.344;14.886;2022-08-19T08:13:07;18.90;;;14.73;;
40691;SDS011;26377;53.344;14.886;2022-08-19T08:15:35;17.00;;;15.25;;
40691;SDS011;26377;53.344;14.886;2022-08-19T08:18:06;17.27;;;15.48;;
40691;SDS011;26377;53.344;14.886;2022-08-19T08:20:34;19.07;;;14.68;;
40691;SDS011;26377;53.344;14.886;2022-08-19T08:23:03;15.18;;;13.60;;
40691;SDS011;26377;53.344;14.886;2022-08-19T08:25:53;17.70;;;14.60;;
40691;SDS011;26377;53.344;14.886;2022-08-19T08:28:24;14.68;;;13.22;;
40691;SDS011;26377;53.344;14.886;2022-08-19T08:30:53;14.90;;;13.40;;
40691;SDS011;26377;53.344;14.886;2022-08-19T08:33:22;17.95;;;14.65;;
40691;SDS011;26377;53.344;14.886;2022-08-19T08:35:53;17.42;;;14.00;;
40691;SDS011;26377;53.344;14.886;2022-08-19T08:38:20;19.07;;;14.73;;
40691;SDS011;26377;53.344;14.886;2022-08-19T08:41:01;19.50;;;15.18;;
40691;SDS011;26377;53.344;14.886;2022-08-19T08:43:35;15.23;;;13.78;;
40691;SDS011;26377;53.344;14.886;2022-08-19T08:46:11;20.97;;;14.03;;
40691;SDS011;26377;53.344;14.886;2022-08-19T08:48:49;15.45;;;13.80;;
40691;SDS011;26377;53.344;14.886;2022-08-19T08:51:33;16.13;;;14.53;;
40691;SDS011;26377;53.344;14.886;2022-08-19T08:54:08;20.00;;;15.95;;
40691;SDS011;26377;53.344;14.886;2022-08-19T08:56:39;16.48;;;14.23;;
40691;SDS011;26377;53.344;14.886;2022-08-19T09:01:55;19.10;;;13.83;;
40691;SDS011;26377;53.344;14.886;2022-08-19T09:04:22;20.57;;;15.55;;
40691;SDS011;26377;53.344;14.886;2022-08-19T09:06:59;16.85;;;14.83;;
40691;SDS011;26377;53.344;14.886;2022-08-19T09:17:29;19.73;;;14.95;;
40691;SDS011;26377;53.344;14.886;2022-08-19T09:22:41;16.30;;;14.80;;
40691;SDS011;26377;53.344;14.886;2022-08-19T09:25:14;16.60;;;14.80;;
40691;SDS011;26377;53.344;14.886;2022-08-19T09:27:44;17.12;;;15.43;;
40691;SDS011;26377;53.344;14.886;2022-08-19T09:30:20;18.62;;;15.10;;
40691;SDS011;26377;53.344;14.886;2022-08-19T09:32:50;14.78;;;13.18;;
40691;SDS011;26377;53.344;14.886;2022-08-19T09:35:21;18.10;;;15.05;;
40691;SDS011;26377;53.344;14.886;2022-08-19T09:37:53;16.62;;;14.83;;
40691;SDS011;26377;53.344;14.886;2022-08-19T09:40:23;17.55;;;15.75;;
40691;SDS011;26377;53.344;14.886;2022-08-19T09:42:54;26.97;;;19.45;;
40691;SDS011;26377;53.344;14.886;2022-08-19T09:45:26;47.60;;;31.15;;
40691;SDS011;26377;53.344;14.886;2022-08-19T09:47:56;27.20;;;21.40;;
40691;SDS011;26377;53.344;14.886;2022-08-19T09:50:27;16.52;;;14.25;;
40691;SDS011;26377;53.344;14.886;2022-08-19T09:52:54;19.45;;;14.90;;
40691;SDS011;26377;53.344;14.886;2022-08-19T09:55:23;19.27;;;15.78;;
40691;SDS011;26377;53.344;14.886;2022-08-19T09:57:53;20.05;;;16.17;;
40691;SDS011;26377;53.344;14.886;2022-08-19T10:00:21;34.75;;;27.32;;
40691;SDS011;26377;53.344;14.886;2022-08-19T10:02:48;23.07;;;20.12;;
40691;SDS011;26377;53.344;14.886;2022-08-19T10:05:15;17.35;;;15.38;;
40691;SDS011;26377;53.344;14.886;2022-08-19T10:08:02;16.35;;;14.65;;
40691;SDS011;26377;53.344;14.886;2022-08-19T10:10:34;16.00;;;14.40;;
40691;SDS011;26377;53.344;14.886;2022-08-19T10:13:02;17.62;;;15.32;;
40691;SDS011;26377;53.344;14.886;2022-08-19T10:15:30;17.50;;;15.72;;
40691;SDS011;26377;53.344;14.886;2022-08-19T10:17:57;16.00;;;14.30;;
40691;SDS011;26377;53.344;14.886;2022-08-19T10:20:29;16.65;;;14.98;;
40691;SDS011;26377;53.344;14.886;2022-08-19T10:22:57;20.90;;;16.37;;
40691;SDS011;26377;53.344;14.886;2022-08-19T10:25:27;16.50;;;15.00;;
40691;SDS011;26377;53.344;14.886;2022-08-19T10:27:56;18.62;;;14.90;;
40691;SDS011;26377;53.344;14.886;2022-08-19T10:32:54;16.05;;;14.30;;
40691;SDS011;26377;53.344;14.886;2022-08-19T10:35:21;17.50;;;15.70;;
40691;SDS011;26377;53.344;14.886;2022-08-19T10:37:49;15.58;;;14.07;;
40691;SDS011;26377;53.344;14.886;2022-08-19T10:40:18;23.15;;;19.65;;
40691;SDS011;26377;53.344;14.886;2022-08-19T10:42:46;19.20;;;17.27;;
40691;SDS011;26377;53.344;14.886;2022-08-19T10:45:13;18.37;;;15.58;;
40691;SDS011;26377;53.344;14.886;2022-08-19T10:47:41;17.70;;;16.10;;
40691;SDS011;26377;53.344;14.886;2022-08-19T10:50:08;17.60;;;15.75;;
40691;SDS011;26377;53.344;14.886;2022-08-19T10:52:56;19.10;;;16.95;;
40691;SDS011;26377;53.344;14.886;2022-08-19T10:55:25;20.92;;;15.38;;
40691;SDS011;26377;53.344;14.886;2022-08-19T10:58:15;16.85;;;15.10;;
40691;SDS011;26377;53.344;14.886;2022-08-19T11:00:58;17.67;;;15.20;;
40691;SDS011;26377;53.344;14.886;2022-08-19T11:03:26;23.20;;;18.60;;
40691;SDS011;26377;53.344;14.886;2022-08-19T11:06:03;18.40;;;16.60;;
40691;SDS011;26377;53.344;14.886;2022-08-19T11:08:29;23.92;;;19.60;;
40691;SDS011;26377;53.344;14.886;2022-08-19T11:10:59;19.00;;;14.87;;
40691;SDS011;26377;53.344;14.886;2022-08-19T11:13:32;19.17;;;17.17;;
40691;SDS011;26377;53.344;14.886;2022-08-19T11:16:08;19.80;;;14.03;;
40691;SDS011;26377;53.344;14.886;2022-08-19T11:18:43;16.75;;;14.78;;
40691;SDS011;26377;53.344;14.886;2022-08-19T11:21:22;16.82;;;14.05;;
40691;SDS011;26377;53.344;14.886;2022-08-19T11:23:56;15.23;;;13.62;;
40691;SDS011;26377;53.344;14.886;2022-08-19T11:26:32;14.87;;;13.28;;
40691;SDS011;26377;53.344;14.886;2022-08-19T11:29:02;13.22;;;11.93;;
40691;SDS011;26377;53.344;14.886;2022-08-19T11:31:32;14.93;;;13.43;;
40691;SDS011;26377;53.344;14.886;2022-08-19T11:34:02;15.35;;;13.10;;
40691;SDS011;26377;53.344;14.886;2022-08-19T11:36:33;15.90;;;12.95;;
40691;SDS011;26377;53.344;14.886;2022-08-19T11:41:34;15.20;;;12.58;;
40691;SDS011;26377;53.344;14.886;2022-08-19T11:44:02;17.00;;;11.90;;
40691;SDS011;26377;53.344;14.886;2022-08-19T11:46:30;14.30;;;10.93;;
40691;SDS011;26377;53.344;14.886;2022-08-19T11:49:00;14.07;;;10.20;;
40691;SDS011;26377;53.344;14.886;2022-08-19T11:51:29;12.20;;;9.78;;
40691;SDS011;26377;53.344;14.886;2022-08-19T11:56:27;11.68;;;10.50;;
40691;SDS011;26377;53.344;14.886;2022-08-19T11:58:57;11.35;;;10.15;;
40691;SDS011;26377;53.344;14.886;2022-08-19T12:01:25;16.55;;;10.45;;
40691;SDS011;26377;53.344;14.886;2022-08-19T12:03:54;11.90;;;10.40;;
40691;SDS011;26377;53.344;14.886;2022-08-19T12:06:27;13.90;;;9.98;;
40691;SDS011;26377;53.344;14.886;2022-08-19T12:08:57;15.60;;;11.35;;
40691;SDS011;26377;53.344;14.886;2022-08-19T12:11:30;12.40;;;10.03;;
40691;SDS011;26377;53.344;14.886;2022-08-19T12:13:59;11.03;;;9.20;;
40691;SDS011;26377;53.344;14.886;2022-08-19T12:16:28;13.68;;;10.48;;
40691;SDS011;26377;53.344;14.886;2022-08-19T12:21:27;11.85;;;9.03;;
40691;SDS011;26377;53.344;14.886;2022-08-19T12:23:55;11.97;;;9.70;;
40691;SDS011;26377;53.344;14.886;2022-08-19T12:26:25;10.68;;;9.48;;
40691;SDS011;26377;53.344;14.886;2022-08-19T12:28:54;13.55;;;9.93;;
40691;SDS011;26377;53.344;14.886;2022-08-19T12:31:22;15.03;;;9.33;;
40691;SDS011;26377;53.344;14.886;2022-08-19T12:33:49;13.90;;;10.35;;
40691;SDS011;26377;53.344;14.886;2022-08-19T12:36:18;12.47;;;9.03;;
40691;SDS011;26377;53.344;14.886;2022-08-19T12:38:46;11.03;;;9.93;;
40691;SDS011;26377;53.344;14.886;2022-08-19T12:41:15;16.95;;;10.10;;
40691;SDS011;26377;53.344;14.886;2022-08-19T12:43:44;13.05;;;9.65;;
40691;SDS011;26377;53.344;14.886;2022-08-19T12:46:15;10.23;;;9.23;;
40691;SDS011;26377;53.344;14.886;2022-08-19T12:48:44;11.88;;;9.18;;
40691;SDS011;26377;53.344;14.886;2022-08-19T12:51:13;13.43;;;9.38;;
40691;SDS011;26377;53.344;14.886;2022-08-19T12:53:46;17.65;;;10.70;;
40691;SDS011;26377;53.344;14.886;2022-08-19T12:56:16;15.93;;;9.55;;
40691;SDS011;26377;53.344;14.886;2022-08-19T12:58:45;14.28;;;10.08;;
40691;SDS011;26377;53.344;14.886;2022-08-19T13:01:14;11.97;;;9.25;;
40691;SDS011;26377;53.344;14.886;2022-08-19T13:03:44;10.55;;;8.83;;
40691;SDS011;26377;53.344;14.886;2022-08-19T13:06:13;11.12;;;9.25;;
40691;SDS011;26377;53.344;14.886;2022-08-19T13:08:43;14.37;;;9.50;;
40691;SDS011;26377;53.344;14.886;2022-08-19T13:11:11;15.35;;;9.38;;
40691;SDS011;26377;53.344;14.886;2022-08-19T13:13:44;13.98;;;9.45;;
40691;SDS011;26377;53.344;14.886;2022-08-19T13:16:14;10.93;;;9.15;;
40691;SDS011;26377;53.344;14.886;2022-08-19T13:18:45;9.88;;;8.55;;
40691;SDS011;26377;53.344;14.886;2022-08-19T13:21:14;10.45;;;8.33;;
40691;SDS011;26377;53.344;14.886;2022-08-19T13:23:43;9.18;;;8.30;;
40691;SDS011;26377;53.344;14.886;2022-08-19T13:26:11;9.93;;;8.63;;
40691;SDS011;26377;53.344;14.886;2022-08-19T13:28:39;11.97;;;9.08;;
40691;SDS011;26377;53.344;14.886;2022-08-19T13:31:28;14.33;;;9.50;;
40691;SDS011;26377;53.344;14.886;2022-08-19T13:36:48;10.05;;;8.28;;
40691;SDS011;26377;53.344;14.886;2022-08-19T13:39:15;10.58;;;8.48;;
40691;SDS011;26377;53.344;14.886;2022-08-19T13:41:43;10.45;;;9.38;;
40691;SDS011;26377;53.344;14.886;2022-08-19T13:44:17;12.00;;;9.48;;
40691;SDS011;26377;53.344;14.886;2022-08-19T13:46:46;11.88;;;10.15;;
40691;SDS011;26377;53.344;14.886;2022-08-19T13:49:17;9.00;;;7.87;;
40691;SDS011;26377;53.344;14.886;2022-08-19T13:51:45;11.12;;;9.25;;
40691;SDS011;26377;53.344;14.886;2022-08-19T13:54:12;11.35;;;8.43;;
40691;SDS011;26377;53.344;14.886;2022-08-19T13:56:40;9.68;;;7.90;;
40691;SDS011;26377;53.344;14.886;2022-08-19T13:59:10;10.68;;;8.18;;
40691;SDS011;26377;53.344;14.886;2022-08-19T14:01:39;8.73;;;7.85;;
40691;SDS011;26377;53.344;14.886;2022-08-19T14:04:07;11.38;;;9.08;;
40691;SDS011;26377;53.344;14.886;2022-08-19T14:06:35;10.28;;;8.68;;
40691;SDS011;26377;53.344;14.886;2022-08-19T14:09:02;12.13;;;8.63;;
40691;SDS011;26377;53.344;14.886;2022-08-19T14:11:31;9.98;;;8.30;;
40691;SDS011;26377;53.344;14.886;2022-08-19T14:13:59;10.45;;;9.05;;
40691;SDS011;26377;53.344;14.886;2022-08-19T14:16:26;10.65;;;8.68;;
40691;SDS011;26377;53.344;14.886;2022-08-19T14:18:53;15.20;;;9.53;;
40691;SDS011;26377;53.344;14.886;2022-08-19T14:21:21;12.68;;;9.33;;
40691;SDS011;26377;53.344;14.886;2022-08-19T14:23:51;11.80;;;9.85;;
40691;SDS011;26377;53.344;14.886;2022-08-19T14:26:20;14.33;;;10.93;;
40691;SDS011;26377;53.344;14.886;2022-08-19T14:28:49;17.05;;;12.28;;
40691;SDS011;26377;53.344;14.886;2022-08-19T14:31:18;18.75;;;13.40;;
40691;SDS011;26377;53.344;14.886;2022-08-19T14:33:49;15.30;;;12.07;;
40691;SDS011;26377;53.344;14.886;2022-08-19T14:36:18;14.23;;;11.60;;
40691;SDS011;26377;53.344;14.886;2022-08-19T14:38:47;13.60;;;12.07;;
40691;SDS011;26377;53.344;14.886;2022-08-19T14:41:17;16.90;;;12.35;;
40691;SDS011;26377;53.344;14.886;2022-08-19T14:43:48;17.92;;;12.07;;
40691;SDS011;26377;53.344;14.886;2022-08-19T14:48:48;18.95;;;11.65;;
40691;SDS011;26377;53.344;14.886;2022-08-19T14:51:17;19.60;;;12.47;;
40691;SDS011;26377;53.344;14.886;2022-08-19T14:53:47;20.30;;;12.23;;
40691;SDS011;26377;53.344;14.886;2022-08-19T14:56:18;12.73;;;10.60;;
40691;SDS011;26377;53.344;14.886;2022-08-19T14:58:48;13.18;;;10.38;;
40691;SDS011;26377;53.344;14.886;2022-08-19T15:01:21;12.07;;;10.85;;
40691;SDS011;26377;53.344;14.886;2022-08-19T15:06:21;15.20;;;10.45;;
40691;SDS011;26377;53.344;14.886;2022-08-19T15:08:52;14.25;;;10.48;;
40691;SDS011;26377;53.344;14.886;2022-08-19T15:11:21;11.78;;;9.95;;